sensor_id;sensor_type;location;lat;lon;timestamp;temperature;humidity
54158;DHT22;40065;49.894;10.358;2023-07-20T00:03:30;21.50;99.90
54158;DHT22;40065;49.894;10.358;2023-07-20T00:08:32;21.40;99.90
54158;DHT22;40065;49.894;10.358;2023-07-20T00:13:34;21.40;99.90
54158;DHT22;40065;49.894;10.358;2023-07-20T00:18:36;21.50;99.90
54158;DHT22;40065;49.894;10.358;2023-07-20T00:23:38;21.50;99.90
54158;DHT22;40065;49.894;10.358;2023-07-20T00:28:40;21.40;99.90
54158;DHT22;40065;49.894;10.358;2023-07-20T00:33:42;21.30;99.90
54158;DHT22;40065;49.894;10.358;2023-07-20T00:38:43;21.30;99.90
54158;DHT22;40065;49.894;10.358;2023-07-20T00:43:45;21.20;99.90
54158;DHT22;40065;49.894;10.358;2023-07-20T00:48:47;21.20;99.90
54158;DHT22;40065;49.894;10.358;2023-07-20T00:53:49;21.20;99.90
54158;DHT22;40065;49.894;10.358;2023-07-20T00:58:52;21.20;99.90
54158;DHT22;40065;49.894;10.358;2023-07-20T01:03:55;21.30;99.90
54158;DHT22;40065;49.894;10.358;2023-07-20T01:09:19;21.20;99.90
54158;DHT22;40065;49.894;10.358;2023-07-20T01:14:21;21.10;99.90
54158;DHT22;40065;49.894;10.358;2023-07-20T01:19:24;21.00;99.90
54158;DHT22;40065;49.894;10.358;2023-07-20T01:35:29;21.20;99.90
54158;DHT22;40065;49.894;10.358;2023-07-20T01:40:31;21.20;99.90
54158;DHT22;40065;49.894;10.358;2023-07-20T01:45:33;21.10;99.90
54158;DHT22;40065;49.894;10.358;2023-07-20T01:50:35;20.90;99.90
54158;DHT22;40065;49.894;10.358;2023-07-20T01:55:37;20.60;99.90
54158;DHT22;40065;49.894;10.358;2023-07-20T02:00:39;20.60;99.90
54158;DHT22;40065;49.894;10.358;2023-07-20T02:05:44;20.60;99.90
54158;DHT22;40065;49.894;10.358;2023-07-20T02:10:47;20.60;99.90
54158;DHT22;40065;49.894;10.358;2023-07-20T02:15:49;20.70;99.90
54158;DHT22;40065;49.894;10.358;2023-07-20T02:20:53;20.70;99.90
54158;DHT22;40065;49.894;10.358;2023-07-20T02:25:55;20.80;99.90
54158;DHT22;40065;49.894;10.358;2023-07-20T02:30:57;20.70;99.90
54158;DHT22;40065;49.894;10.358;2023-07-20T02:35:59;20.70;99.90
54158;DHT22;40065;49.894;10.358;2023-07-20T02:41:01;20.60;99.90
54158;DHT22;40065;49.894;10.358;2023-07-20T02:46:03;20.60;99.90
54158;DHT22;40065;49.894;10.358;2023-07-20T02:51:05;20.50;99.90
54158;DHT22;40065;49.894;10.358;2023-07-20T02:56:07;20.20;99.90
54158;DHT22;40065;49.894;10.358;2023-07-20T03:01:09;20.20;99.90
54158;DHT22;40065;49.894;10.358;2023-07-20T03:06:13;20.10;99.90
54158;DHT22;40065;49.894;10.358;2023-07-20T03:11:16;19.90;99.90
54158;DHT22;40065;49.894;10.358;2023-07-20T03:16:19;19.90;99.90
54158;DHT22;40065;49.894;10.358;2023-07-20T03:21:22;20.00;99.90
54158;DHT22;40065;49.894;10.358;2023-07-20T03:26:24;19.90;99.90
54158;DHT22;40065;49.894;10.358;2023-07-20T03:31:26;19.80;99.90
54158;DHT22;40065;49.894;10.358;2023-07-20T03:36:28;19.70;99.90
54158;DHT22;40065;49.894;10.358;2023-07-20T03:41:30;19.60;99.90
54158;DHT22;40065;49.894;10.358;2023-07-20T03:46:32;19.50;99.90
54158;DHT22;40065;49.894;10.358;2023-07-20T03:51:36;19.50;99.90
54158;DHT22;40065;49.894;10.358;2023-07-20T03:56:38;19.40;99.90
54158;DHT22;40065;49.894;10.358;2023-07-20T04:01:39;19.40;99.90
54158;DHT22;40065;49.894;10.358;2023-07-20T04:06:42;19.50;99.90
54158;DHT22;40065;49.894;10.358;2023-07-20T04:11:45;19.50;99.90
54158;DHT22;40065;49.894;10.358;2023-07-20T04:16:48;19.50;99.90
54158;DHT22;40065;49.894;10.358;2023-07-20T04:21:49;20.20;99.90
54158;DHT22;40065;49.894;10.358;2023-07-20T04:26:51;20.70;99.90
54158;DHT22;40065;49.894;10.358;2023-07-20T04:31:53;20.70;99.90
54158;DHT22;40065;49.894;10.358;2023-07-20T04:36:55;20.70;99.90
54158;DHT22;40065;49.894;10.358;2023-07-20T04:41:59;20.40;99.90
54158;DHT22;40065;49.894;10.358;2023-07-20T04:47:00;20.30;99.90
54158;DHT22;40065;49.894;10.358;2023-07-20T04:52:04;20.10;99.90
54158;DHT22;40065;49.894;10.358;2023-07-20T04:57:11;20.00;99.90
54158;DHT22;40065;49.894;10.358;2023-07-20T05:02:19;19.90;99.90
54158;DHT22;40065;49.894;10.358;2023-07-20T05:07:21;20.00;99.90
54158;DHT22;40065;49.894;10.358;2023-07-20T05:12:24;20.50;99.90
54158;DHT22;40065;49.894;10.358;2023-07-20T05:17:25;20.80;99.90
54158;DHT22;40065;49.894;10.358;2023-07-20T05:22:27;20.70;99.90
54158;DHT22;40065;49.894;10.358;2023-07-20T05:27:29;20.90;99.90
54158;DHT22;40065;49.894;10.358;2023-07-20T05:32:31;22.70;97.80
54158;DHT22;40065;49.894;10.358;2023-07-20T05:37:33;24.30;93.80
54158;DHT22;40065;49.894;10.358;2023-07-20T05:42:35;23.90;93.40
54158;DHT22;40065;49.894;10.358;2023-07-20T05:47:37;24.70;93.40
54158;DHT22;40065;49.894;10.358;2023-07-20T05:52:40;25.30;91.40
54158;DHT22;40065;49.894;10.358;2023-07-20T05:57:42;26.70;88.70
54158;DHT22;40065;49.894;10.358;2023-07-20T06:02:45;26.80;87.00
54158;DHT22;40065;49.894;10.358;2023-07-20T06:07:48;26.40;87.60
54158;DHT22;40065;49.894;10.358;2023-07-20T06:12:49;27.30;84.90
54158;DHT22;40065;49.894;10.358;2023-07-20T06:17:51;27.50;84.70
54158;DHT22;40065;49.894;10.358;2023-07-20T06:22:53;27.40;84.00
54158;DHT22;40065;49.894;10.358;2023-07-20T06:27:55;27.80;83.20
54158;DHT22;40065;49.894;10.358;2023-07-20T06:32:57;27.70;81.30
54158;DHT22;40065;49.894;10.358;2023-07-20T06:37:59;27.90;81.40
54158;DHT22;40065;49.894;10.358;2023-07-20T06:43:22;27.70;79.60
54158;DHT22;40065;49.894;10.358;2023-07-20T06:48:26;28.00;78.80
54158;DHT22;40065;49.894;10.358;2023-07-20T06:53:29;27.80;75.60
54158;DHT22;40065;49.894;10.358;2023-07-20T06:58:31;28.10;76.20
54158;DHT22;40065;49.894;10.358;2023-07-20T07:03:33;27.90;76.20
54158;DHT22;40065;49.894;10.358;2023-07-20T07:08:35;28.30;75.40
54158;DHT22;40065;49.894;10.358;2023-07-20T07:13:37;28.90;72.00
54158;DHT22;40065;49.894;10.358;2023-07-20T07:18:39;29.50;72.00
54158;DHT22;40065;49.894;10.358;2023-07-20T07:23:42;30.40;71.30
54158;DHT22;40065;49.894;10.358;2023-07-20T07:28:44;30.60;70.10
54158;DHT22;40065;49.894;10.358;2023-07-20T07:33:46;31.00;69.00
54158;DHT22;40065;49.894;10.358;2023-07-20T07:38:48;29.90;69.00
54158;DHT22;40065;49.894;10.358;2023-07-20T07:44:10;30.20;69.10
54158;DHT22;40065;49.894;10.358;2023-07-20T07:49:12;29.80;67.20
54158;DHT22;40065;49.894;10.358;2023-07-20T07:54:14;30.30;67.70
54158;DHT22;40065;49.894;10.358;2023-07-20T07:59:16;30.00;67.90
54158;DHT22;40065;49.894;10.358;2023-07-20T08:04:18;29.60;67.20
54158;DHT22;40065;49.894;10.358;2023-07-20T08:09:20;30.00;66.00
54158;DHT22;40065;49.894;10.358;2023-07-20T08:14:22;30.80;64.10
54158;DHT22;40065;49.894;10.358;2023-07-20T08:19:24;30.80;65.00
54158;DHT22;40065;49.894;10.358;2023-07-20T08:24:26;30.90;64.50
54158;DHT22;40065;49.894;10.358;2023-07-20T08:29:28;29.50;65.70
54158;DHT22;40065;49.894;10.358;2023-07-20T08:34:30;28.10;68.80
54158;DHT22;40065;49.894;10.358;2023-07-20T08:39:33;27.40;70.90
54158;DHT22;40065;49.894;10.358;2023-07-20T08:44:41;28.30;70.30
54158;DHT22;40065;49.894;10.358;2023-07-20T08:49:45;29.10;67.80
54158;DHT22;40065;49.894;10.358;2023-07-20T08:54:49;29.90;65.30
54158;DHT22;40065;49.894;10.358;2023-07-20T08:59:52;29.60;65.00
54158;DHT22;40065;49.894;10.358;2023-07-20T09:04:55;31.10;63.80
54158;DHT22;40065;49.894;10.358;2023-07-20T09:09:57;30.40;63.50
54158;DHT22;40065;49.894;10.358;2023-07-20T09:14:59;29.60;65.80
54158;DHT22;40065;49.894;10.358;2023-07-20T09:20:05;30.80;62.30
54158;DHT22;40065;49.894;10.358;2023-07-20T09:25:17;31.90;60.50
54158;DHT22;40065;49.894;10.358;2023-07-20T09:30:25;32.00;57.60
54158;DHT22;40065;49.894;10.358;2023-07-20T09:35:32;31.80;58.00
54158;DHT22;40065;49.894;10.358;2023-07-20T09:40:44;32.00;57.70
54158;DHT22;40065;49.894;10.358;2023-07-20T09:45:48;30.70;56.70
54158;DHT22;40065;49.894;10.358;2023-07-20T09:50:56;30.00;58.70
54158;DHT22;40065;49.894;10.358;2023-07-20T09:55:58;29.70;56.60
54158;DHT22;40065;49.894;10.358;2023-07-20T10:01:03;29.20;58.60
54158;DHT22;40065;49.894;10.358;2023-07-20T10:06:10;29.60;59.20
54158;DHT22;40065;49.894;10.358;2023-07-20T10:11:15;29.70;59.10
54158;DHT22;40065;49.894;10.358;2023-07-20T10:16:29;28.80;61.30
54158;DHT22;40065;49.894;10.358;2023-07-20T10:21:35;28.20;63.30
54158;DHT22;40065;49.894;10.358;2023-07-20T10:26:43;29.00;63.40
54158;DHT22;40065;49.894;10.358;2023-07-20T10:31:45;30.20;61.00
54158;DHT22;40065;49.894;10.358;2023-07-20T10:36:47;31.90;56.40
54158;DHT22;40065;49.894;10.358;2023-07-20T10:42:00;32.80;56.20
54158;DHT22;40065;49.894;10.358;2023-07-20T10:47:09;32.70;55.00
54158;DHT22;40065;49.894;10.358;2023-07-20T10:52:12;32.80;56.80
54158;DHT22;40065;49.894;10.358;2023-07-20T10:57:28;31.80;54.00
54158;DHT22;40065;49.894;10.358;2023-07-20T11:02:41;32.60;51.90
54158;DHT22;40065;49.894;10.358;2023-07-20T11:07:43;31.50;55.20
54158;DHT22;40065;49.894;10.358;2023-07-20T11:13:16;31.30;54.20
54158;DHT22;40065;49.894;10.358;2023-07-20T11:18:19;30.60;55.30
54158;DHT22;40065;49.894;10.358;2023-07-20T11:23:21;30.50;54.70
54158;DHT22;40065;49.894;10.358;2023-07-20T11:28:23;30.40;55.90
54158;DHT22;40065;49.894;10.358;2023-07-20T11:33:25;31.90;56.20
54158;DHT22;40065;49.894;10.358;2023-07-20T11:38:26;33.20;51.80
54158;DHT22;40065;49.894;10.358;2023-07-20T11:43:28;32.70;50.80
54158;DHT22;40065;49.894;10.358;2023-07-20T11:48:31;31.90;53.10
54158;DHT22;40065;49.894;10.358;2023-07-20T11:53:33;32.80;52.00
54158;DHT22;40065;49.894;10.358;2023-07-20T11:58:35;32.30;51.50
54158;DHT22;40065;49.894;10.358;2023-07-20T12:03:37;31.60;52.40
54158;DHT22;40065;49.894;10.358;2023-07-20T12:08:40;31.40;54.40
54158;DHT22;40065;49.894;10.358;2023-07-20T12:13:43;31.40;50.20
54158;DHT22;40065;49.894;10.358;2023-07-20T12:18:48;32.00;48.50
54158;DHT22;40065;49.894;10.358;2023-07-20T12:23:50;33.10;48.20
54158;DHT22;40065;49.894;10.358;2023-07-20T12:28:52;33.40;48.90
54158;DHT22;40065;49.894;10.358;2023-07-20T12:33:54;33.90;47.40
54158;DHT22;40065;49.894;10.358;2023-07-20T12:39:00;32.70;47.80
54158;DHT22;40065;49.894;10.358;2023-07-20T12:44:03;31.40;49.10
54158;DHT22;40065;49.894;10.358;2023-07-20T12:49:05;32.10;49.30
54158;DHT22;40065;49.894;10.358;2023-07-20T12:54:07;32.70;49.60
54158;DHT22;40065;49.894;10.358;2023-07-20T12:59:09;31.90;51.60
54158;DHT22;40065;49.894;10.358;2023-07-20T13:04:11;32.00;48.80
54158;DHT22;40065;49.894;10.358;2023-07-20T13:09:15;31.90;48.00
54158;DHT22;40065;49.894;10.358;2023-07-20T13:14:17;31.20;49.40
54158;DHT22;40065;49.894;10.358;2023-07-20T13:19:18;30.80;51.10
54158;DHT22;40065;49.894;10.358;2023-07-20T13:24:20;31.70;49.80
54158;DHT22;40065;49.894;10.358;2023-07-20T13:29:24;31.50;49.50
54158;DHT22;40065;49.894;10.358;2023-07-20T13:34:26;30.50;50.80
54158;DHT22;40065;49.894;10.358;2023-07-20T13:39:32;30.30;52.30
54158;DHT22;40065;49.894;10.358;2023-07-20T13:44:34;30.70;50.80
54158;DHT22;40065;49.894;10.358;2023-07-20T13:49:37;31.70;50.00
54158;DHT22;40065;49.894;10.358;2023-07-20T13:54:48;32.50;48.50
54158;DHT22;40065;49.894;10.358;2023-07-20T13:59:55;33.00;48.50
54158;DHT22;40065;49.894;10.358;2023-07-20T14:04:57;32.50;48.40
54158;DHT22;40065;49.894;10.358;2023-07-20T14:10:01;31.50;48.20
54158;DHT22;40065;49.894;10.358;2023-07-20T14:15:07;30.80;47.70
54158;DHT22;40065;49.894;10.358;2023-07-20T14:20:09;30.40;48.80
54158;DHT22;40065;49.894;10.358;2023-07-20T14:25:14;30.10;48.50
54158;DHT22;40065;49.894;10.358;2023-07-20T14:30:19;29.80;49.50
54158;DHT22;40065;49.894;10.358;2023-07-20T14:35:21;30.10;49.50
54158;DHT22;40065;49.894;10.358;2023-07-20T14:40:26;30.70;50.00
54158;DHT22;40065;49.894;10.358;2023-07-20T14:45:28;31.20;49.50
54158;DHT22;40065;49.894;10.358;2023-07-20T14:50:30;31.40;49.10
54158;DHT22;40065;49.894;10.358;2023-07-20T14:55:33;32.00;48.00
54158;DHT22;40065;49.894;10.358;2023-07-20T15:00:35;32.40;47.20
54158;DHT22;40065;49.894;10.358;2023-07-20T15:05:36;32.00;46.50
54158;DHT22;40065;49.894;10.358;2023-07-20T15:10:39;31.80;47.30
54158;DHT22;40065;49.894;10.358;2023-07-20T15:15:41;32.00;46.10
54158;DHT22;40065;49.894;10.358;2023-07-20T15:20:44;32.40;45.70
54158;DHT22;40065;49.894;10.358;2023-07-20T15:25:46;32.50;44.40
54158;DHT22;40065;49.894;10.358;2023-07-20T15:30:48;32.30;45.40
54158;DHT22;40065;49.894;10.358;2023-07-20T15:35:51;31.80;46.50
54158;DHT22;40065;49.894;10.358;2023-07-20T15:40:53;31.80;45.50
54158;DHT22;40065;49.894;10.358;2023-07-20T15:46:02;31.90;46.30
54158;DHT22;40065;49.894;10.358;2023-07-20T15:51:07;31.20;47.10
54158;DHT22;40065;49.894;10.358;2023-07-20T15:56:09;30.50;46.20
54158;DHT22;40065;49.894;10.358;2023-07-20T16:01:11;29.80;48.40
54158;DHT22;40065;49.894;10.358;2023-07-20T16:06:13;29.50;49.10
54158;DHT22;40065;49.894;10.358;2023-07-20T16:11:14;29.70;49.60
54158;DHT22;40065;49.894;10.358;2023-07-20T16:16:16;29.80;49.90
54158;DHT22;40065;49.894;10.358;2023-07-20T16:21:18;29.90;49.10
54158;DHT22;40065;49.894;10.358;2023-07-20T16:26:20;29.70;48.80
54158;DHT22;40065;49.894;10.358;2023-07-20T16:31:22;29.50;49.40
54158;DHT22;40065;49.894;10.358;2023-07-20T16:36:24;29.30;50.50
54158;DHT22;40065;49.894;10.358;2023-07-20T16:41:26;29.40;50.00
54158;DHT22;40065;49.894;10.358;2023-07-20T16:46:32;29.00;49.70
54158;DHT22;40065;49.894;10.358;2023-07-20T16:51:38;29.00;50.20
54158;DHT22;40065;49.894;10.358;2023-07-20T16:56:39;28.90;49.70
54158;DHT22;40065;49.894;10.358;2023-07-20T17:01:43;29.00;49.60
54158;DHT22;40065;49.894;10.358;2023-07-20T17:06:46;28.80;50.00
54158;DHT22;40065;49.894;10.358;2023-07-20T17:11:48;28.60;49.70
54158;DHT22;40065;49.894;10.358;2023-07-20T17:16:50;28.20;50.00
54158;DHT22;40065;49.894;10.358;2023-07-20T17:21:53;28.20;49.90
54158;DHT22;40065;49.894;10.358;2023-07-20T17:26:55;28.20;49.60
54158;DHT22;40065;49.894;10.358;2023-07-20T17:32:00;28.10;50.00
54158;DHT22;40065;49.894;10.358;2023-07-20T17:37:02;27.90;48.70
54158;DHT22;40065;49.894;10.358;2023-07-20T17:42:07;27.80;47.50
54158;DHT22;40065;49.894;10.358;2023-07-20T17:47:12;27.80;49.20
54158;DHT22;40065;49.894;10.358;2023-07-20T17:52:17;27.60;53.30
54158;DHT22;40065;49.894;10.358;2023-07-20T17:57:19;27.40;54.60
54158;DHT22;40065;49.894;10.358;2023-07-20T18:02:21;27.30;54.90
54158;DHT22;40065;49.894;10.358;2023-07-20T18:07:27;27.10;55.40
54158;DHT22;40065;49.894;10.358;2023-07-20T18:12:30;26.60;56.40
54158;DHT22;40065;49.894;10.358;2023-07-20T18:17:33;26.30;57.60
54158;DHT22;40065;49.894;10.358;2023-07-20T18:22:35;26.10;57.80
54158;DHT22;40065;49.894;10.358;2023-07-20T18:27:37;25.90;58.10
54158;DHT22;40065;49.894;10.358;2023-07-20T18:32:40;25.80;58.50
54158;DHT22;40065;49.894;10.358;2023-07-20T18:37:41;25.70;58.60
54158;DHT22;40065;49.894;10.358;2023-07-20T18:42:43;25.60;58.90
54158;DHT22;40065;49.894;10.358;2023-07-20T18:47:45;25.50;59.30
54158;DHT22;40065;49.894;10.358;2023-07-20T18:52:48;25.30;59.80
54158;DHT22;40065;49.894;10.358;2023-07-20T18:57:52;25.10;60.70
54158;DHT22;40065;49.894;10.358;2023-07-20T19:02:54;24.90;60.90
54158;DHT22;40065;49.894;10.358;2023-07-20T19:07:56;24.70;61.70
54158;DHT22;40065;49.894;10.358;2023-07-20T19:13:01;24.60;62.10
54158;DHT22;40065;49.894;10.358;2023-07-20T19:18:03;24.30;62.20
54158;DHT22;40065;49.894;10.358;2023-07-20T19:23:05;24.10;62.50
54158;DHT22;40065;49.894;10.358;2023-07-20T19:28:07;24.10;62.80
54158;DHT22;40065;49.894;10.358;2023-07-20T19:33:09;23.90;64.20
54158;DHT22;40065;49.894;10.358;2023-07-20T19:38:11;23.80;64.20
54158;DHT22;40065;49.894;10.358;2023-07-20T19:43:13;23.60;65.20
54158;DHT22;40065;49.894;10.358;2023-07-20T19:48:17;23.40;65.00
54158;DHT22;40065;49.894;10.358;2023-07-20T19:53:21;23.30;65.50
54158;DHT22;40065;49.894;10.358;2023-07-20T19:58:26;23.20;66.50
54158;DHT22;40065;49.894;10.358;2023-07-20T20:03:28;23.00;66.60
54158;DHT22;40065;49.894;10.358;2023-07-20T20:08:33;22.90;67.90
54158;DHT22;40065;49.894;10.358;2023-07-20T20:13:35;22.80;67.40
54158;DHT22;40065;49.894;10.358;2023-07-20T20:18:37;22.80;68.20
54158;DHT22;40065;49.894;10.358;2023-07-20T20:23:45;22.80;66.80
54158;DHT22;40065;49.894;10.358;2023-07-20T20:28:47;22.80;66.70
54158;DHT22;40065;49.894;10.358;2023-07-20T20:33:49;22.90;67.10
54158;DHT22;40065;49.894;10.358;2023-07-20T20:38:50;22.80;67.20
54158;DHT22;40065;49.894;10.358;2023-07-20T20:43:52;22.70;68.00
54158;DHT22;40065;49.894;10.358;2023-07-20T20:48:54;22.60;68.20
54158;DHT22;40065;49.894;10.358;2023-07-20T20:53:56;22.60;67.50
54158;DHT22;40065;49.894;10.358;2023-07-20T20:58:58;22.60;67.80
54158;DHT22;40065;49.894;10.358;2023-07-20T21:03:59;22.50;68.70
54158;DHT22;40065;49.894;10.358;2023-07-20T21:09:02;22.50;68.30
54158;DHT22;40065;49.894;10.358;2023-07-20T21:14:04;22.50;68.60
54158;DHT22;40065;49.894;10.358;2023-07-20T21:19:06;22.40;68.60
54158;DHT22;40065;49.894;10.358;2023-07-20T21:24:09;22.40;69.00
54158;DHT22;40065;49.894;10.358;2023-07-20T21:29:11;22.50;69.40
54158;DHT22;40065;49.894;10.358;2023-07-20T21:34:13;22.40;70.00
54158;DHT22;40065;49.894;10.358;2023-07-20T21:39:16;22.30;69.90
54158;DHT22;40065;49.894;10.358;2023-07-20T21:44:17;22.40;68.80
54158;DHT22;40065;49.894;10.358;2023-07-20T21:49:19;22.40;68.60
54158;DHT22;40065;49.894;10.358;2023-07-20T21:54:21;22.40;68.60
54158;DHT22;40065;49.894;10.358;2023-07-20T21:59:23;22.40;68.40
54158;DHT22;40065;49.894;10.358;2023-07-20T22:04:25;22.40;68.90
54158;DHT22;40065;49.894;10.358;2023-07-20T22:09:28;22.50;68.40
54158;DHT22;40065;49.894;10.358;2023-07-20T22:14:30;22.50;67.90
54158;DHT22;40065;49.894;10.358;2023-07-20T22:19:32;22.50;68.40
54158;DHT22;40065;49.894;10.358;2023-07-20T22:24:34;22.50;68.60
54158;DHT22;40065;49.894;10.358;2023-07-20T22:29:36;22.60;68.80
54158;DHT22;40065;49.894;10.358;2023-07-20T22:34:38;22.40;69.50
54158;DHT22;40065;49.894;10.358;2023-07-20T22:39:40;22.40;68.90
54158;DHT22;40065;49.894;10.358;2023-07-20T22:44:42;22.40;68.40
54158;DHT22;40065;49.894;10.358;2023-07-20T22:49:44;22.30;69.10
54158;DHT22;40065;49.894;10.358;2023-07-20T22:54:46;22.30;69.40
54158;DHT22;40065;49.894;10.358;2023-07-20T22:59:47;22.20;69.20
54158;DHT22;40065;49.894;10.358;2023-07-20T23:04:49;22.20;69.10
54158;DHT22;40065;49.894;10.358;2023-07-20T23:09:55;22.20;68.60
54158;DHT22;40065;49.894;10.358;2023-07-20T23:14:57;22.30;68.90
54158;DHT22;40065;49.894;10.358;2023-07-20T23:19:59;22.20;68.40
54158;DHT22;40065;49.894;10.358;2023-07-20T23:25:01;22.10;68.90
54158;DHT22;40065;49.894;10.358;2023-07-20T23:30:03;22.00;69.40
54158;DHT22;40065;49.894;10.358;2023-07-20T23:35:06;22.10;69.20
54158;DHT22;40065;49.894;10.358;2023-07-20T23:40:08;22.20;68.50
54158;DHT22;40065;49.894;10.358;2023-07-20T23:45:16;22.20;69.60
54158;DHT22;40065;49.894;10.358;2023-07-20T23:50:18;22.20;70.10
54158;DHT22;40065;49.894;10.358;2023-07-20T23:55:20;22.30;69.30
